London, United Kingdom

7:43 PM BST on September 01, 2014 (GMT +0100)
Heathrow | Change Station
CLOSE
Current Station
Airport
Location: London,
Elevation: 79 ft
Nearby Weather Stations

Elev 79 ft 51.48 °N, 0.46 °W | Updated 23 minutes ago

Scattered Clouds
Scattered Clouds
64 °F
Feels Like 64 °F
N
6
Wind Variable Wind from West

Today
High -- | Low -- °F
--% Chance of Precip.
Yesterday
High -- | Low -- °F
Precip. -- in
6:14 AM 7:48 PM
Waxing Crescent, 43% visible
Pressure 30.12 in
Visibility 6.2 miles
Clouds Few 800 ft
Scattered Clouds 1900 ft
Dew Point 63 °F
Humidity 94%
Rainfall 0.00 in
Snow Depth Not available.
UV 0 out of 12
Pollen Not available.
Air Quality Not available.
Flu Activity Not available.
METAR EGLL 011820Z 28005KT 9999 FEW008 SCT019 18/17 Q1020 TEMPO SHRA BKN012

More Conditions Fewer Conditions

Pressure 30.12 in
Visibility 6.2 miles
Clouds Few 800 ft
Scattered Clouds 1900 ft
Dew Point 63 °F
Humidity 94%
Rainfall 0.00 in
Snow Depth Not available.
UV 0 out of 12
Pollen Not available.
Air Quality Not available.
Flu Activity Not available.
METAR EGLL 011820Z 28005KT 9999 FEW008 SCT019 18/17 Q1020 TEMPO SHRA BKN012

More Conditions Fewer Conditions

10-Day Weather Forecast

Almanac

Astronomy

Sep. 01, 2014 Rise Set
Actual Time 6:14 AM BST 7:48 PM BST
Civil Twilight 5:39 AM BST 8:23 PM BST
Nautical Twilight 4:56 AM BST 9:05 PM BST
Astronomical Twilight 4:08 AM BST 9:52 PM BST
Moon 1:31 PM BST 10:50 PM BST
Length of Visible Light 14h 44m
Length of Day
13h 34m
Tomorrow will be 3m 50s shorter.
Waxing Crescent, 43% of the Moon is Illuminated
Today
Waxing Crescent
Sep 2
First Quarter
Sep 8
Full
Sep 15
Last Quarter
Sep 24
New

Today's Extremes

Country Highs Country Lows

Community

WunderPhotos

Upload Photos

1,749,359 photos uploaded!

Nearby

Snow Depth

Not available.

Earthquake Activity

City Distance Mag. Time & Date
No recent earthquake activity has been reported nearby.
Minimum magnitude displayed is 2.5.

Coastal Water Temperatures

Place Temperature
No Stations Reporting

Nearby Weather Stations